Hyundai Republic — A8IL3 — position and weather

sailwx.info

Track history (hours):
 
Tides and Currents Weather Stations Pressure Air Temp Water Temp Dewpoint Dewpoint Depression Visibility Wind Speed Wind Dir Waves Ship Positions

Hyundai Republic

Last reported at 2014-Aug-24 17:12 UTC. Time now 2014-Sep-03 04:45 UTC.
Position N 27°06' W 079°42'.
Warning: this ship's position is 9 days out of date.

Length 305 m; draft 11.1 m.

Type: Ship (hazmat cat A). MMSI: 636090994.

Date/timePositionNaut miles runAvg speedWind from/ knotsBaromVisibWave heightAir tempDewpointWater temp
2014-Aug-24 17:12N 27°06' W 079°42'1117.2
2014-Aug-24 16:33N 26°55' W 079°44'1717.0
2014-Aug-24 15:33N 26°38' W 079°48'1716.7
2014-Aug-24 14:33N 26°22' W 079°52'1616.2
2014-Aug-24 13:33N 26°06' W 079°55'1514.9
2014-Aug-24 12:33N 25°52' W 079°58'1010.0
2014-Aug-24 11:33N 25°46' W 080°07'2 1.5
2014-Aug-24 10:27N 25°46' W 080°09'0 0.0
2014-Aug-24 09:27N 25°46' W 080°09'0 0.0
2014-Aug-24 08:27N 25°46' W 080°09'0 0.0
2014-Aug-24 07:27N 25°46' W 080°09'0 0.0
2014-Aug-24 06:24N 25°46' W 080°09'0 0.0
2014-Aug-24 05:30N 25°46' W 080°09'0 0.0
2014-Aug-24 04:30N 25°46' W 080°09'0 0.0
2014-Aug-24 03:30N 25°46' W 080°09'0 0.0
2014-Aug-24 02:30N 25°46' W 080°09'0 0.0
2014-Aug-24 01:33N 25°46' W 080°09'0 0.0
2014-Aug-24 00:33N 25°46' W 080°09'0 0.0
2014-Aug-23 23:30N 25°46' W 080°09'0 0.0
2014-Aug-23 22:33N 25°46' W 080°09'0 0.0
2014-Aug-23 21:33N 25°46' W 080°09'0 0.0
2014-Aug-23 20:33N 25°46' W 080°09'0 0.0
2014-Aug-23 19:33N 25°46' W 080°09'  
2014-Aug-21 06:33N 32°05' W 081°03'6 5.3
2014-Aug-21 05:28N 32°08' W 081°09'0 0.0
2014-Aug-21 04:22N 32°08' W 081°09'0 0.0
2014-Aug-20 12:16N 32°08' W 081°09'3 0.7
2014-Aug-20 08:19N 32°06' W 081°07'5 7.1
2014-Aug-20 07:33N 32°06' W 081°00'  
Track history (hours):
 
Tides and Currents Weather Stations Pressure Air Temp Water Temp Dewpoint Dewpoint Depression Visibility Wind Speed Wind Dir Waves Ship Positions

Hyundai Republic

Last reported at 2014-Aug-24 17:12 UTC. Time now 2014-Sep-03 04:45 UTC.
Position N 27°06' W 079°42'.
Warning: this ship's position is 9 days out of date.

Length 305 m; draft 11.1 m.

Type: Ship (hazmat cat A). MMSI: 636090994.

Date/timePositionNaut miles runAvg speedWind from/ knotsBaromVisibWave heightAir tempDewpointWater temp
2014-Aug-24 17:12N 27°06' W 079°42'1117.2
2014-Aug-24 16:33N 26°55' W 079°44'1717.0
2014-Aug-24 15:33N 26°38' W 079°48'1716.7
2014-Aug-24 14:33N 26°22' W 079°52'1616.2
2014-Aug-24 13:33N 26°06' W 079°55'1514.9
2014-Aug-24 12:33N 25°52' W 079°58'1010.0
2014-Aug-24 11:33N 25°46' W 080°07'2 1.5
2014-Aug-24 10:27N 25°46' W 080°09'0 0.0
2014-Aug-24 09:27N 25°46' W 080°09'0 0.0
2014-Aug-24 08:27N 25°46' W 080°09'0 0.0
2014-Aug-24 07:27N 25°46' W 080°09'0 0.0
2014-Aug-24 06:24N 25°46' W 080°09'0 0.0
2014-Aug-24 05:30N 25°46' W 080°09'0 0.0
2014-Aug-24 04:30N 25°46' W 080°09'0 0.0
2014-Aug-24 03:30N 25°46' W 080°09'0 0.0
2014-Aug-24 02:30N 25°46' W 080°09'0 0.0
2014-Aug-24 01:33N 25°46' W 080°09'0 0.0
2014-Aug-24 00:33N 25°46' W 080°09'0 0.0
2014-Aug-23 23:30N 25°46' W 080°09'0 0.0
2014-Aug-23 22:33N 25°46' W 080°09'0 0.0
2014-Aug-23 21:33N 25°46' W 080°09'0 0.0
2014-Aug-23 20:33N 25°46' W 080°09'0 0.0
2014-Aug-23 19:33N 25°46' W 080°09'  
2014-Aug-21 06:33N 32°05' W 081°03'6 5.3
2014-Aug-21 05:28N 32°08' W 081°09'0 0.0
2014-Aug-21 04:22N 32°08' W 081°09'0 0.0
2014-Aug-20 12:16N 32°08' W 081°09'3 0.7
2014-Aug-20 08:19N 32°06' W 081°07'5 7.1
2014-Aug-20 07:33N 32°06' W 081°00'  

Dump ship's entire track history